sensor_id;sensor_type;location;lat;lon;timestamp;temperature;humidity
8611;DHT22;4343;53.648;10.098;2022-08-05T00:01:49;20.90;99.90
8611;DHT22;4343;53.648;10.098;2022-08-05T00:05:19;20.80;99.90
8611;DHT22;4343;53.648;10.098;2022-08-05T00:07:48;20.80;99.90
8611;DHT22;4343;53.648;10.098;2022-08-05T00:11:03;20.80;99.90
8611;DHT22;4343;53.648;10.098;2022-08-05T00:13:56;20.70;99.90
8611;DHT22;4343;53.648;10.098;2022-08-05T00:17:16;20.70;99.90
8611;DHT22;4343;53.648;10.098;2022-08-05T00:20:46;20.70;99.90
8611;DHT22;4343;53.648;10.098;2022-08-05T00:23:34;20.70;99.90
8611;DHT22;4343;53.648;10.098;2022-08-05T00:26:34;20.70;99.90
8611;DHT22;4343;53.648;10.098;2022-08-05T00:29:27;20.60;99.90
8611;DHT22;4343;53.648;10.098;2022-08-05T00:32:54;20.60;99.90
8611;DHT22;4343;53.648;10.098;2022-08-05T00:36:28;20.60;99.90
8611;DHT22;4343;53.648;10.098;2022-08-05T00:39:13;20.50;99.90
8611;DHT22;4343;53.648;10.098;2022-08-05T00:42:37;20.50;99.90
8611;DHT22;4343;53.648;10.098;2022-08-05T00:45:49;20.50;99.90
8611;DHT22;4343;53.648;10.098;2022-08-05T00:48:20;20.40;99.90
8611;DHT22;4343;53.648;10.098;2022-08-05T00:50:49;20.40;99.90
8611;DHT22;4343;53.648;10.098;2022-08-05T00:53:20;20.30;99.90
8611;DHT22;4343;53.648;10.098;2022-08-05T00:55:48;20.30;99.90
8611;DHT22;4343;53.648;10.098;2022-08-05T00:58:17;20.30;99.90
8611;DHT22;4343;53.648;10.098;2022-08-05T01:00:44;20.20;99.90
8611;DHT22;4343;53.648;10.098;2022-08-05T01:03:10;20.20;99.90
8611;DHT22;4343;53.648;10.098;2022-08-05T01:05:36;20.20;99.90
8611;DHT22;4343;53.648;10.098;2022-08-05T01:08:02;20.10;99.90
8611;DHT22;4343;53.648;10.098;2022-08-05T01:13:40;20.10;99.90
8611;DHT22;4343;53.648;10.098;2022-08-05T01:16:17;20.00;99.90
8611;DHT22;4343;53.648;10.098;2022-08-05T01:18:50;20.00;99.90
8611;DHT22;4343;53.648;10.098;2022-08-05T01:24:25;19.90;99.90
8611;DHT22;4343;53.648;10.098;2022-08-05T01:29:58;19.80;99.90
8611;DHT22;4343;53.648;10.098;2022-08-05T01:32:26;19.70;99.90
8611;DHT22;4343;53.648;10.098;2022-08-05T01:35:06;19.80;99.90
8611;DHT22;4343;53.648;10.098;2022-08-05T01:37:42;19.70;99.90
8611;DHT22;4343;53.648;10.098;2022-08-05T01:40:08;19.70;99.90
8611;DHT22;4343;53.648;10.098;2022-08-05T01:42:35;19.70;99.90
8611;DHT22;4343;53.648;10.098;2022-08-05T01:45:02;19.60;99.90
8611;DHT22;4343;53.648;10.098;2022-08-05T01:47:30;19.60;99.90
8611;DHT22;4343;53.648;10.098;2022-08-05T01:49:58;19.50;99.90
8611;DHT22;4343;53.648;10.098;2022-08-05T01:52:26;19.50;99.90
8611;DHT22;4343;53.648;10.098;2022-08-05T01:54:56;19.40;99.90
8611;DHT22;4343;53.648;10.098;2022-08-05T01:57:27;19.40;99.90
8611;DHT22;4343;53.648;10.098;2022-08-05T01:59:55;19.40;99.90
8611;DHT22;4343;53.648;10.098;2022-08-05T02:02:23;19.50;99.90
8611;DHT22;4343;53.648;10.098;2022-08-05T02:04:51;19.50;99.90
8611;DHT22;4343;53.648;10.098;2022-08-05T02:07:17;19.40;99.90
8611;DHT22;4343;53.648;10.098;2022-08-05T02:09:43;19.40;99.90
8611;DHT22;4343;53.648;10.098;2022-08-05T02:12:22;19.40;99.90
8611;DHT22;4343;53.648;10.098;2022-08-05T02:18:12;19.40;99.90
8611;DHT22;4343;53.648;10.098;2022-08-05T02:20:45;19.40;99.90
8611;DHT22;4343;53.648;10.098;2022-08-05T02:23:12;19.30;99.90
8611;DHT22;4343;53.648;10.098;2022-08-05T02:25:40;19.30;99.90
8611;DHT22;4343;53.648;10.098;2022-08-05T02:28:09;19.30;99.90
8611;DHT22;4343;53.648;10.098;2022-08-05T02:30:44;19.30;99.90
8611;DHT22;4343;53.648;10.098;2022-08-05T02:33:14;19.30;99.90
8611;DHT22;4343;53.648;10.098;2022-08-05T02:35:41;19.30;99.90
8611;DHT22;4343;53.648;10.098;2022-08-05T02:38:09;19.30;99.90
8611;DHT22;4343;53.648;10.098;2022-08-05T02:40:36;19.30;99.90
8611;DHT22;4343;53.648;10.098;2022-08-05T02:43:05;19.30;99.90
8611;DHT22;4343;53.648;10.098;2022-08-05T02:45:31;19.30;99.90
8611;DHT22;4343;53.648;10.098;2022-08-05T02:48:00;19.20;99.90
8611;DHT22;4343;53.648;10.098;2022-08-05T02:50:27;19.20;99.90
8611;DHT22;4343;53.648;10.098;2022-08-05T02:52:53;19.20;99.90
8611;DHT22;4343;53.648;10.098;2022-08-05T02:55:19;19.20;99.90
8611;DHT22;4343;53.648;10.098;2022-08-05T02:57:46;19.10;99.90
8611;DHT22;4343;53.648;10.098;2022-08-05T03:00:13;19.10;99.90
8611;DHT22;4343;53.648;10.098;2022-08-05T03:02:40;19.10;99.90
8611;DHT22;4343;53.648;10.098;2022-08-05T03:05:08;19.10;99.90
8611;DHT22;4343;53.648;10.098;2022-08-05T03:07:35;19.10;99.90
8611;DHT22;4343;53.648;10.098;2022-08-05T03:10:02;19.10;99.90
8611;DHT22;4343;53.648;10.098;2022-08-05T03:12:32;19.00;99.90
8611;DHT22;4343;53.648;10.098;2022-08-05T03:14:58;19.00;99.90
8611;DHT22;4343;53.648;10.098;2022-08-05T03:17:23;18.90;99.90
8611;DHT22;4343;53.648;10.098;2022-08-05T03:19:49;18.90;99.90
8611;DHT22;4343;53.648;10.098;2022-08-05T03:22:14;18.90;99.90
8611;DHT22;4343;53.648;10.098;2022-08-05T03:24:41;18.90;99.90
8611;DHT22;4343;53.648;10.098;2022-08-05T03:27:07;18.80;99.90
8611;DHT22;4343;53.648;10.098;2022-08-05T03:29:33;18.80;99.90
8611;DHT22;4343;53.648;10.098;2022-08-05T03:31:59;18.80;99.90
8611;DHT22;4343;53.648;10.098;2022-08-05T03:34:26;18.70;99.90
8611;DHT22;4343;53.648;10.098;2022-08-05T03:36:52;18.70;99.90
8611;DHT22;4343;53.648;10.098;2022-08-05T03:39:18;18.70;99.90
8611;DHT22;4343;53.648;10.098;2022-08-05T03:41:43;18.70;99.90
8611;DHT22;4343;53.648;10.098;2022-08-05T03:44:09;18.60;99.90
8611;DHT22;4343;53.648;10.098;2022-08-05T03:46:35;18.60;99.90
8611;DHT22;4343;53.648;10.098;2022-08-05T03:49:00;18.60;99.90
8611;DHT22;4343;53.648;10.098;2022-08-05T03:51:37;18.60;99.90
8611;DHT22;4343;53.648;10.098;2022-08-05T03:54:13;18.60;99.90
8611;DHT22;4343;53.648;10.098;2022-08-05T03:56:44;18.60;99.90
8611;DHT22;4343;53.648;10.098;2022-08-05T03:59:24;18.60;99.90
8611;DHT22;4343;53.648;10.098;2022-08-05T04:01:51;18.60;99.90
8611;DHT22;4343;53.648;10.098;2022-08-05T04:04:19;18.50;99.90
8611;DHT22;4343;53.648;10.098;2022-08-05T04:06:45;18.50;99.90
8611;DHT22;4343;53.648;10.098;2022-08-05T04:09:12;18.50;99.90
8611;DHT22;4343;53.648;10.098;2022-08-05T04:11:38;18.40;99.90
8611;DHT22;4343;53.648;10.098;2022-08-05T04:14:04;18.50;99.90
8611;DHT22;4343;53.648;10.098;2022-08-05T04:16:32;18.40;99.90
8611;DHT22;4343;53.648;10.098;2022-08-05T04:19:00;18.40;99.90
8611;DHT22;4343;53.648;10.098;2022-08-05T04:21:26;18.30;99.90
8611;DHT22;4343;53.648;10.098;2022-08-05T04:23:51;18.30;99.90
8611;DHT22;4343;53.648;10.098;2022-08-05T04:26:17;18.30;99.90
8611;DHT22;4343;53.648;10.098;2022-08-05T04:28:42;18.30;99.90
8611;DHT22;4343;53.648;10.098;2022-08-05T04:31:08;18.30;99.90
8611;DHT22;4343;53.648;10.098;2022-08-05T04:33:33;18.30;99.90
8611;DHT22;4343;53.648;10.098;2022-08-05T04:35:59;18.30;99.90
8611;DHT22;4343;53.648;10.098;2022-08-05T04:38:24;18.30;99.90
8611;DHT22;4343;53.648;10.098;2022-08-05T04:40:50;18.30;99.90
8611;DHT22;4343;53.648;10.098;2022-08-05T04:43:15;18.30;99.90
8611;DHT22;4343;53.648;10.098;2022-08-05T04:45:41;18.30;99.90
8611;DHT22;4343;53.648;10.098;2022-08-05T04:48:09;18.30;99.90
8611;DHT22;4343;53.648;10.098;2022-08-05T04:50:46;18.20;99.90
8611;DHT22;4343;53.648;10.098;2022-08-05T04:53:13;18.30;99.90
8611;DHT22;4343;53.648;10.098;2022-08-05T04:55:40;18.30;99.90
8611;DHT22;4343;53.648;10.098;2022-08-05T04:58:08;18.30;99.90
8611;DHT22;4343;53.648;10.098;2022-08-05T05:00:35;18.20;99.90
8611;DHT22;4343;53.648;10.098;2022-08-05T05:03:02;18.30;99.90
8611;DHT22;4343;53.648;10.098;2022-08-05T05:05:28;18.30;99.90
8611;DHT22;4343;53.648;10.098;2022-08-05T05:07:59;18.30;99.90
8611;DHT22;4343;53.648;10.098;2022-08-05T05:10:24;18.30;99.90
8611;DHT22;4343;53.648;10.098;2022-08-05T05:12:50;18.30;99.90
8611;DHT22;4343;53.648;10.098;2022-08-05T05:15:16;18.30;99.90
8611;DHT22;4343;53.648;10.098;2022-08-05T05:17:42;18.30;99.90
8611;DHT22;4343;53.648;10.098;2022-08-05T05:20:10;18.30;99.90
8611;DHT22;4343;53.648;10.098;2022-08-05T05:22:36;18.40;99.90
8611;DHT22;4343;53.648;10.098;2022-08-05T05:25:02;18.40;99.90
8611;DHT22;4343;53.648;10.098;2022-08-05T05:27:29;18.40;99.90
8611;DHT22;4343;53.648;10.098;2022-08-05T05:29:55;18.40;99.90
8611;DHT22;4343;53.648;10.098;2022-08-05T05:32:21;18.40;99.90
8611;DHT22;4343;53.648;10.098;2022-08-05T05:34:46;18.40;99.90
8611;DHT22;4343;53.648;10.098;2022-08-05T05:37:12;18.40;99.90
8611;DHT22;4343;53.648;10.098;2022-08-05T05:39:39;18.50;99.90
8611;DHT22;4343;53.648;10.098;2022-08-05T05:42:05;18.50;99.90
8611;DHT22;4343;53.648;10.098;2022-08-05T05:44:30;18.50;99.90
8611;DHT22;4343;53.648;10.098;2022-08-05T05:46:56;18.50;99.90
8611;DHT22;4343;53.648;10.098;2022-08-05T05:49:21;18.50;99.90
8611;DHT22;4343;53.648;10.098;2022-08-05T05:51:47;18.50;99.90
8611;DHT22;4343;53.648;10.098;2022-08-05T05:54:12;18.50;99.90
8611;DHT22;4343;53.648;10.098;2022-08-05T05:56:38;18.50;99.90
8611;DHT22;4343;53.648;10.098;2022-08-05T05:59:05;18.50;99.90
8611;DHT22;4343;53.648;10.098;2022-08-05T06:01:35;18.50;99.90
8611;DHT22;4343;53.648;10.098;2022-08-05T06:04:01;18.50;99.90
8611;DHT22;4343;53.648;10.098;2022-08-05T06:06:27;18.50;99.90
8611;DHT22;4343;53.648;10.098;2022-08-05T06:08:52;18.40;99.90
8611;DHT22;4343;53.648;10.098;2022-08-05T06:11:18;18.50;99.90
8611;DHT22;4343;53.648;10.098;2022-08-05T06:13:43;18.40;99.90
8611;DHT22;4343;53.648;10.098;2022-08-05T06:16:09;18.50;99.90
8611;DHT22;4343;53.648;10.098;2022-08-05T06:18:34;18.40;99.90
8611;DHT22;4343;53.648;10.098;2022-08-05T06:21:02;18.50;99.90
8611;DHT22;4343;53.648;10.098;2022-08-05T06:23:27;18.40;99.90
8611;DHT22;4343;53.648;10.098;2022-08-05T06:25:53;18.40;99.90
8611;DHT22;4343;53.648;10.098;2022-08-05T06:28:19;18.40;99.90
8611;DHT22;4343;53.648;10.098;2022-08-05T06:30:44;18.40;99.90
8611;DHT22;4343;53.648;10.098;2022-08-05T06:33:10;18.40;99.90
8611;DHT22;4343;53.648;10.098;2022-08-05T06:35:35;18.50;99.90
8611;DHT22;4343;53.648;10.098;2022-08-05T06:38:01;18.50;99.90
8611;DHT22;4343;53.648;10.098;2022-08-05T06:40:26;18.50;99.90
8611;DHT22;4343;53.648;10.098;2022-08-05T06:42:52;18.60;99.90
8611;DHT22;4343;53.648;10.098;2022-08-05T06:45:17;18.60;99.90
8611;DHT22;4343;53.648;10.098;2022-08-05T06:47:43;18.60;99.90
8611;DHT22;4343;53.648;10.098;2022-08-05T06:50:08;18.70;99.90
8611;DHT22;4343;53.648;10.098;2022-08-05T06:52:34;18.70;99.90
8611;DHT22;4343;53.648;10.098;2022-08-05T06:55:00;18.70;99.90
8611;DHT22;4343;53.648;10.098;2022-08-05T06:57:25;18.70;99.90
8611;DHT22;4343;53.648;10.098;2022-08-05T06:59:51;18.80;99.90
8611;DHT22;4343;53.648;10.098;2022-08-05T07:02:16;18.80;99.90
8611;DHT22;4343;53.648;10.098;2022-08-05T07:04:42;18.90;99.90
8611;DHT22;4343;53.648;10.098;2022-08-05T07:07:07;19.00;99.90
8611;DHT22;4343;53.648;10.098;2022-08-05T07:09:33;19.00;99.90
8611;DHT22;4343;53.648;10.098;2022-08-05T07:11:58;19.20;99.90
8611;DHT22;4343;53.648;10.098;2022-08-05T07:14:24;19.20;99.90
8611;DHT22;4343;53.648;10.098;2022-08-05T07:17:08;19.30;99.90
8611;DHT22;4343;53.648;10.098;2022-08-05T07:19:33;19.30;99.90
8611;DHT22;4343;53.648;10.098;2022-08-05T07:21:59;19.30;99.90
8611;DHT22;4343;53.648;10.098;2022-08-05T07:24:24;19.40;99.90
8611;DHT22;4343;53.648;10.098;2022-08-05T07:26:50;19.40;99.90
8611;DHT22;4343;53.648;10.098;2022-08-05T07:29:15;19.40;99.90
8611;DHT22;4343;53.648;10.098;2022-08-05T07:31:41;19.40;99.90
8611;DHT22;4343;53.648;10.098;2022-08-05T07:34:07;19.30;99.90
8611;DHT22;4343;53.648;10.098;2022-08-05T07:36:32;19.30;99.90
8611;DHT22;4343;53.648;10.098;2022-08-05T07:38:59;19.30;99.90
8611;DHT22;4343;53.648;10.098;2022-08-05T07:41:24;19.30;99.90
8611;DHT22;4343;53.648;10.098;2022-08-05T07:43:50;19.30;99.90
8611;DHT22;4343;53.648;10.098;2022-08-05T07:46:15;19.20;99.90
8611;DHT22;4343;53.648;10.098;2022-08-05T07:48:41;19.20;99.90
8611;DHT22;4343;53.648;10.098;2022-08-05T07:51:06;19.20;99.90
8611;DHT22;4343;53.648;10.098;2022-08-05T07:53:32;19.20;99.90
8611;DHT22;4343;53.648;10.098;2022-08-05T07:55:57;19.10;99.90
8611;DHT22;4343;53.648;10.098;2022-08-05T07:58:23;19.10;99.90
8611;DHT22;4343;53.648;10.098;2022-08-05T08:00:48;19.10;99.90
8611;DHT22;4343;53.648;10.098;2022-08-05T08:03:15;19.10;99.90
8611;DHT22;4343;53.648;10.098;2022-08-05T08:05:40;19.10;99.90
8611;DHT22;4343;53.648;10.098;2022-08-05T08:08:10;19.10;99.90
8611;DHT22;4343;53.648;10.098;2022-08-05T08:10:36;19.10;99.90
8611;DHT22;4343;53.648;10.098;2022-08-05T08:13:02;19.10;99.90
8611;DHT22;4343;53.648;10.098;2022-08-05T08:15:28;19.10;99.90
8611;DHT22;4343;53.648;10.098;2022-08-05T08:17:53;19.10;99.90
8611;DHT22;4343;53.648;10.098;2022-08-05T08:20:20;19.00;99.90
8611;DHT22;4343;53.648;10.098;2022-08-05T08:22:54;19.10;99.90
8611;DHT22;4343;53.648;10.098;2022-08-05T08:25:21;19.00;99.90
8611;DHT22;4343;53.648;10.098;2022-08-05T08:27:47;19.00;99.90
8611;DHT22;4343;53.648;10.098;2022-08-05T08:30:13;19.00;99.90
8611;DHT22;4343;53.648;10.098;2022-08-05T08:32:39;19.00;99.90
8611;DHT22;4343;53.648;10.098;2022-08-05T08:35:06;19.00;99.90
8611;DHT22;4343;53.648;10.098;2022-08-05T08:37:32;19.00;99.90
8611;DHT22;4343;53.648;10.098;2022-08-05T08:39:58;19.00;99.90
8611;DHT22;4343;53.648;10.098;2022-08-05T08:42:24;19.00;99.90
8611;DHT22;4343;53.648;10.098;2022-08-05T08:44:52;18.90;99.90
8611;DHT22;4343;53.648;10.098;2022-08-05T08:47:22;19.00;99.90
8611;DHT22;4343;53.648;10.098;2022-08-05T08:49:54;19.00;99.90
8611;DHT22;4343;53.648;10.098;2022-08-05T08:52:29;18.90;99.90
8611;DHT22;4343;53.648;10.098;2022-08-05T08:54:55;18.90;99.90
8611;DHT22;4343;53.648;10.098;2022-08-05T08:57:22;18.90;99.90
8611;DHT22;4343;53.648;10.098;2022-08-05T08:59:48;18.90;99.90
8611;DHT22;4343;53.648;10.098;2022-08-05T09:02:15;18.90;99.90
8611;DHT22;4343;53.648;10.098;2022-08-05T09:04:44;18.90;99.90
8611;DHT22;4343;53.648;10.098;2022-08-05T09:07:09;18.90;99.90
8611;DHT22;4343;53.648;10.098;2022-08-05T09:09:36;18.90;99.90
8611;DHT22;4343;53.648;10.098;2022-08-05T09:12:07;18.90;99.90
8611;DHT22;4343;53.648;10.098;2022-08-05T09:14:34;18.90;99.90
8611;DHT22;4343;53.648;10.098;2022-08-05T09:17:00;18.90;99.90
8611;DHT22;4343;53.648;10.098;2022-08-05T09:19:26;18.90;99.90
8611;DHT22;4343;53.648;10.098;2022-08-05T09:21:53;18.90;99.90
8611;DHT22;4343;53.648;10.098;2022-08-05T09:24:18;18.90;99.90
8611;DHT22;4343;53.648;10.098;2022-08-05T09:26:51;18.90;99.90
8611;DHT22;4343;53.648;10.098;2022-08-05T09:29:20;18.90;99.90
8611;DHT22;4343;53.648;10.098;2022-08-05T09:32:12;18.90;99.90
8611;DHT22;4343;53.648;10.098;2022-08-05T09:34:46;18.90;99.90
8611;DHT22;4343;53.648;10.098;2022-08-05T09:37:19;18.90;99.90
8611;DHT22;4343;53.648;10.098;2022-08-05T09:39:45;18.90;99.90
8611;DHT22;4343;53.648;10.098;2022-08-05T09:42:15;18.90;99.90
8611;DHT22;4343;53.648;10.098;2022-08-05T09:44:43;18.90;99.90
8611;DHT22;4343;53.648;10.098;2022-08-05T09:47:21;19.00;99.90
8611;DHT22;4343;53.648;10.098;2022-08-05T09:49:53;18.90;99.90
8611;DHT22;4343;53.648;10.098;2022-08-05T09:52:26;19.00;99.90
8611;DHT22;4343;53.648;10.098;2022-08-05T09:55:09;19.00;99.90
8611;DHT22;4343;53.648;10.098;2022-08-05T09:57:43;19.00;99.90
8611;DHT22;4343;53.648;10.098;2022-08-05T10:00:15;19.00;99.90
8611;DHT22;4343;53.648;10.098;2022-08-05T10:02:43;19.00;99.90
8611;DHT22;4343;53.648;10.098;2022-08-05T10:05:15;19.00;99.90
8611;DHT22;4343;53.648;10.098;2022-08-05T10:10:35;19.10;99.90
8611;DHT22;4343;53.648;10.098;2022-08-05T10:13:01;19.00;99.90
8611;DHT22;4343;53.648;10.098;2022-08-05T10:15:29;19.00;99.90
8611;DHT22;4343;53.648;10.098;2022-08-05T10:20:36;19.00;99.90
8611;DHT22;4343;53.648;10.098;2022-08-05T10:23:03;18.90;99.90
8611;DHT22;4343;53.648;10.098;2022-08-05T10:25:28;19.00;99.90
8611;DHT22;4343;53.648;10.098;2022-08-05T10:27:54;19.00;99.90
8611;DHT22;4343;53.648;10.098;2022-08-05T10:30:20;19.00;99.90
8611;DHT22;4343;53.648;10.098;2022-08-05T10:32:46;18.90;99.90
8611;DHT22;4343;53.648;10.098;2022-08-05T10:35:12;18.90;99.90
8611;DHT22;4343;53.648;10.098;2022-08-05T10:37:38;18.90;99.90
8611;DHT22;4343;53.648;10.098;2022-08-05T10:40:13;18.90;99.90
8611;DHT22;4343;53.648;10.098;2022-08-05T10:42:43;19.00;99.90
8611;DHT22;4343;53.648;10.098;2022-08-05T10:45:12;19.00;99.90
8611;DHT22;4343;53.648;10.098;2022-08-05T10:47:39;18.90;99.90
8611;DHT22;4343;53.648;10.098;2022-08-05T10:50:10;18.90;99.90
8611;DHT22;4343;53.648;10.098;2022-08-05T10:55:07;19.00;99.90
8611;DHT22;4343;53.648;10.098;2022-08-05T10:57:34;18.90;99.90
8611;DHT22;4343;53.648;10.098;2022-08-05T11:00:19;18.90;99.90
8611;DHT22;4343;53.648;10.098;2022-08-05T11:05:34;18.90;99.90
8611;DHT22;4343;53.648;10.098;2022-08-05T11:08:02;18.90;99.90
8611;DHT22;4343;53.648;10.098;2022-08-05T11:10:28;18.90;99.90
8611;DHT22;4343;53.648;10.098;2022-08-05T11:12:56;18.90;99.90
8611;DHT22;4343;53.648;10.098;2022-08-05T11:15:30;18.80;99.90
8611;DHT22;4343;53.648;10.098;2022-08-05T11:20:47;18.80;99.90
8611;DHT22;4343;53.648;10.098;2022-08-05T11:23:35;18.80;99.90
8611;DHT22;4343;53.648;10.098;2022-08-05T11:26:23;18.80;99.90
8611;DHT22;4343;53.648;10.098;2022-08-05T11:28:52;18.80;99.90
8611;DHT22;4343;53.648;10.098;2022-08-05T11:31:27;18.70;99.90
8611;DHT22;4343;53.648;10.098;2022-08-05T11:33:58;18.70;99.90
8611;DHT22;4343;53.648;10.098;2022-08-05T11:36:48;18.70;99.90
8611;DHT22;4343;53.648;10.098;2022-08-05T11:39:48;18.70;99.90
8611;DHT22;4343;53.648;10.098;2022-08-05T11:42:15;18.60;99.90
8611;DHT22;4343;53.648;10.098;2022-08-05T11:44:42;18.50;99.90
8611;DHT22;4343;53.648;10.098;2022-08-05T11:47:08;18.50;99.90
8611;DHT22;4343;53.648;10.098;2022-08-05T11:49:34;18.40;99.90
8611;DHT22;4343;53.648;10.098;2022-08-05T11:52:00;18.40;99.90
8611;DHT22;4343;53.648;10.098;2022-08-05T11:54:30;18.30;99.90
8611;DHT22;4343;53.648;10.098;2022-08-05T11:56:59;18.30;99.90
8611;DHT22;4343;53.648;10.098;2022-08-05T11:59:27;18.30;99.90
8611;DHT22;4343;53.648;10.098;2022-08-05T12:04:19;18.20;99.90
8611;DHT22;4343;53.648;10.098;2022-08-05T12:06:45;18.20;99.90
8611;DHT22;4343;53.648;10.098;2022-08-05T12:09:10;18.20;99.90
8611;DHT22;4343;53.648;10.098;2022-08-05T12:11:36;18.20;99.90
8611;DHT22;4343;53.648;10.098;2022-08-05T12:14:06;18.20;99.90
8611;DHT22;4343;53.648;10.098;2022-08-05T12:16:40;18.20;99.90
8611;DHT22;4343;53.648;10.098;2022-08-05T12:19:07;18.20;99.90
8611;DHT22;4343;53.648;10.098;2022-08-05T12:21:42;18.30;99.90
8611;DHT22;4343;53.648;10.098;2022-08-05T12:24:10;18.30;99.90
8611;DHT22;4343;53.648;10.098;2022-08-05T12:26:48;18.30;99.90
8611;DHT22;4343;53.648;10.098;2022-08-05T12:29:22;18.30;99.90
8611;DHT22;4343;53.648;10.098;2022-08-05T12:34:18;18.30;99.90
8611;DHT22;4343;53.648;10.098;2022-08-05T12:36:45;18.30;99.90
8611;DHT22;4343;53.648;10.098;2022-08-05T12:39:12;18.30;99.90
8611;DHT22;4343;53.648;10.098;2022-08-05T12:41:39;18.30;99.90
8611;DHT22;4343;53.648;10.098;2022-08-05T12:44:07;18.30;99.90
8611;DHT22;4343;53.648;10.098;2022-08-05T12:46:34;18.40;99.90
8611;DHT22;4343;53.648;10.098;2022-08-05T12:49:04;18.40;99.90
8611;DHT22;4343;53.648;10.098;2022-08-05T12:51:30;18.40;99.90
8611;DHT22;4343;53.648;10.098;2022-08-05T12:54:01;18.40;99.90
8611;DHT22;4343;53.648;10.098;2022-08-05T12:56:28;18.50;99.90
8611;DHT22;4343;53.648;10.098;2022-08-05T12:59:14;18.60;99.90
8611;DHT22;4343;53.648;10.098;2022-08-05T13:01:41;18.60;99.90
8611;DHT22;4343;53.648;10.098;2022-08-05T13:04:07;18.70;99.90
8611;DHT22;4343;53.648;10.098;2022-08-05T13:06:42;18.70;99.90
8611;DHT22;4343;53.648;10.098;2022-08-05T13:09:10;18.70;99.90
8611;DHT22;4343;53.648;10.098;2022-08-05T13:11:41;18.80;99.90
8611;DHT22;4343;53.648;10.098;2022-08-05T13:14:14;18.90;99.90
8611;DHT22;4343;53.648;10.098;2022-08-05T13:16:52;19.00;99.90
8611;DHT22;4343;53.648;10.098;2022-08-05T13:19:20;19.10;99.90
8611;DHT22;4343;53.648;10.098;2022-08-05T13:21:46;19.20;99.90
8611;DHT22;4343;53.648;10.098;2022-08-05T13:24:12;19.20;99.90
8611;DHT22;4343;53.648;10.098;2022-08-05T13:26:37;19.40;99.90
8611;DHT22;4343;53.648;10.098;2022-08-05T13:29:03;19.40;99.90
8611;DHT22;4343;53.648;10.098;2022-08-05T13:31:29;19.50;99.90
8611;DHT22;4343;53.648;10.098;2022-08-05T13:33:54;19.60;99.90
8611;DHT22;4343;53.648;10.098;2022-08-05T13:36:20;19.70;99.90
8611;DHT22;4343;53.648;10.098;2022-08-05T13:38:45;19.80;99.90
8611;DHT22;4343;53.648;10.098;2022-08-05T13:41:11;19.90;99.90
8611;DHT22;4343;53.648;10.098;2022-08-05T13:43:37;20.00;99.90
8611;DHT22;4343;53.648;10.098;2022-08-05T13:46:02;20.10;99.90
8611;DHT22;4343;53.648;10.098;2022-08-05T13:48:28;20.20;99.90
8611;DHT22;4343;53.648;10.098;2022-08-05T13:50:54;20.30;99.90
8611;DHT22;4343;53.648;10.098;2022-08-05T13:53:19;20.40;99.90
8611;DHT22;4343;53.648;10.098;2022-08-05T13:55:45;20.50;99.90
8611;DHT22;4343;53.648;10.098;2022-08-05T13:58:10;20.60;99.90
8611;DHT22;4343;53.648;10.098;2022-08-05T14:00:36;20.80;99.90
8611;DHT22;4343;53.648;10.098;2022-08-05T14:03:01;20.90;99.90
8611;DHT22;4343;53.648;10.098;2022-08-05T14:05:27;21.10;99.90
8611;DHT22;4343;53.648;10.098;2022-08-05T14:07:52;21.20;99.90
8611;DHT22;4343;53.648;10.098;2022-08-05T14:10:21;21.30;99.90
8611;DHT22;4343;53.648;10.098;2022-08-05T14:12:51;21.30;99.90
8611;DHT22;4343;53.648;10.098;2022-08-05T14:15:16;21.30;99.90
8611;DHT22;4343;53.648;10.098;2022-08-05T14:17:42;21.30;99.90
8611;DHT22;4343;53.648;10.098;2022-08-05T14:20:08;21.30;99.90
8611;DHT22;4343;53.648;10.098;2022-08-05T14:22:34;21.30;99.90
8611;DHT22;4343;53.648;10.098;2022-08-05T14:25:01;21.20;99.90
8611;DHT22;4343;53.648;10.098;2022-08-05T14:27:26;21.20;99.90
8611;DHT22;4343;53.648;10.098;2022-08-05T14:30:16;21.20;99.90
8611;DHT22;4343;53.648;10.098;2022-08-05T14:33:54;21.20;99.90
8611;DHT22;4343;53.648;10.098;2022-08-05T14:44:13;21.20;99.90
8611;DHT22;4343;53.648;10.098;2022-08-05T14:47:48;21.10;99.90
8611;DHT22;4343;53.648;10.098;2022-08-05T14:51:16;21.10;99.90
8611;DHT22;4343;53.648;10.098;2022-08-05T14:57:11;21.10;99.90
8611;DHT22;4343;53.648;10.098;2022-08-05T15:03:32;21.10;99.90
8611;DHT22;4343;53.648;10.098;2022-08-05T15:06:19;21.10;99.90
8611;DHT22;4343;53.648;10.098;2022-08-05T15:12:59;21.10;99.90
8611;DHT22;4343;53.648;10.098;2022-08-05T15:16:22;21.10;99.90
8611;DHT22;4343;53.648;10.098;2022-08-05T15:19:17;21.10;99.90
8611;DHT22;4343;53.648;10.098;2022-08-05T15:25:37;21.00;99.90
8611;DHT22;4343;53.648;10.098;2022-08-05T15:38:54;20.70;99.90
8611;DHT22;4343;53.648;10.098;2022-08-05T15:56:05;20.40;99.90
8611;DHT22;4343;53.648;10.098;2022-08-05T16:13:01;20.00;99.90
8611;DHT22;4343;53.648;10.098;2022-08-05T16:34:47;19.50;99.90
8611;DHT22;4343;53.648;10.098;2022-08-05T16:48:46;19.40;99.90
8611;DHT22;4343;53.648;10.098;2022-08-05T16:52:31;19.40;99.90
8611;DHT22;4343;53.648;10.098;2022-08-05T16:56:07;19.30;99.90
8611;DHT22;4343;53.648;10.098;2022-08-05T17:02:46;19.20;99.90
8611;DHT22;4343;53.648;10.098;2022-08-05T17:05:14;19.10;99.90
8611;DHT22;4343;53.648;10.098;2022-08-05T17:07:39;19.10;99.90
8611;DHT22;4343;53.648;10.098;2022-08-05T17:10:05;19.10;99.90
8611;DHT22;4343;53.648;10.098;2022-08-05T17:12:31;19.00;99.90
8611;DHT22;4343;53.648;10.098;2022-08-05T17:14:56;19.00;99.90
8611;DHT22;4343;53.648;10.098;2022-08-05T17:17:22;18.90;99.90
8611;DHT22;4343;53.648;10.098;2022-08-05T17:19:47;18.90;99.90
8611;DHT22;4343;53.648;10.098;2022-08-05T17:22:14;18.90;99.90
8611;DHT22;4343;53.648;10.098;2022-08-05T17:24:40;18.90;99.90
8611;DHT22;4343;53.648;10.098;2022-08-05T17:27:07;18.90;99.90
8611;DHT22;4343;53.648;10.098;2022-08-05T17:29:33;18.90;99.90
8611;DHT22;4343;53.648;10.098;2022-08-05T17:31:59;18.80;99.90
8611;DHT22;4343;53.648;10.098;2022-08-05T17:34:24;18.80;99.90
8611;DHT22;4343;53.648;10.098;2022-08-05T17:36:50;18.70;99.90
8611;DHT22;4343;53.648;10.098;2022-08-05T17:39:15;18.70;99.90
8611;DHT22;4343;53.648;10.098;2022-08-05T17:41:41;18.60;99.90
8611;DHT22;4343;53.648;10.098;2022-08-05T17:44:06;18.60;99.90
8611;DHT22;4343;53.648;10.098;2022-08-05T17:46:32;18.50;99.90
8611;DHT22;4343;53.648;10.098;2022-08-05T17:48:57;18.50;99.90
8611;DHT22;4343;53.648;10.098;2022-08-05T17:51:24;18.40;99.90
8611;DHT22;4343;53.648;10.098;2022-08-05T17:53:49;18.30;99.90
8611;DHT22;4343;53.648;10.098;2022-08-05T17:56:15;18.30;99.90
8611;DHT22;4343;53.648;10.098;2022-08-05T17:58:41;18.20;99.90
8611;DHT22;4343;53.648;10.098;2022-08-05T18:01:07;18.10;99.90
8611;DHT22;4343;53.648;10.098;2022-08-05T18:03:33;18.10;99.90
8611;DHT22;4343;53.648;10.098;2022-08-05T18:05:58;18.00;99.90
8611;DHT22;4343;53.648;10.098;2022-08-05T18:08:30;18.00;99.90
8611;DHT22;4343;53.648;10.098;2022-08-05T18:10:56;17.90;99.90
8611;DHT22;4343;53.648;10.098;2022-08-05T18:13:22;17.90;99.90
8611;DHT22;4343;53.648;10.098;2022-08-05T18:15:47;17.80;99.90